sensor_id;sensor_type;location;lat;lon;timestamp;pressure;altitude;pressure_sealevel;temperature;humidity
63554;BME280;49699;48.072;7.800;2023-05-23T00:01:11;99313.19;;;16.42;77.22
63554;BME280;49699;48.072;7.800;2023-05-23T00:03:38;99312.47;;;16.40;77.17
63554;BME280;49699;48.072;7.800;2023-05-23T00:06:05;99309.25;;;16.36;77.59
63554;BME280;49699;48.072;7.800;2023-05-23T00:08:30;99313.81;;;16.34;77.46
63554;BME280;49699;48.072;7.800;2023-05-23T00:10:55;99313.09;;;16.32;77.83
63554;BME280;49699;48.072;7.800;2023-05-23T00:13:21;99308.25;;;16.27;77.99
63554;BME280;49699;48.072;7.800;2023-05-23T00:15:46;99311.00;;;16.26;78.15
63554;BME280;49699;48.072;7.800;2023-05-23T00:18:12;99307.66;;;16.24;78.13
63554;BME280;49699;48.072;7.800;2023-05-23T00:20:39;99306.94;;;16.22;78.48
63554;BME280;49699;48.072;7.800;2023-05-23T00:23:09;99309.13;;;16.17;78.56
63554;BME280;49699;48.072;7.800;2023-05-23T00:25:37;99305.06;;;16.13;78.73
63554;BME280;49699;48.072;7.800;2023-05-23T00:28:05;99308.94;;;16.09;78.96
63554;BME280;49699;48.072;7.800;2023-05-23T00:30:30;99308.22;;;16.07;79.20
63554;BME280;49699;48.072;7.800;2023-05-23T00:32:56;99312.88;;;16.03;79.16
63554;BME280;49699;48.072;7.800;2023-05-23T00:35:22;99317.41;;;16.01;79.34
63554;BME280;49699;48.072;7.800;2023-05-23T00:37:50;99317.53;;;16.00;79.33
63554;BME280;49699;48.072;7.800;2023-05-23T00:40:16;99319.47;;;15.97;79.38
63554;BME280;49699;48.072;7.800;2023-05-23T00:42:42;99314.31;;;15.96;79.59
63554;BME280;49699;48.072;7.800;2023-05-23T00:45:07;99312.53;;;15.96;79.69
63554;BME280;49699;48.072;7.800;2023-05-23T00:47:32;99311.81;;;15.94;79.57
63554;BME280;49699;48.072;7.800;2023-05-23T00:49:58;99317.78;;;15.96;79.80
63554;BME280;49699;48.072;7.800;2023-05-23T00:52:23;99320.69;;;15.93;79.91
63554;BME280;49699;48.072;7.800;2023-05-23T00:54:49;99322.31;;;15.94;80.23
63554;BME280;49699;48.072;7.800;2023-05-23T00:57:14;99322.31;;;15.94;80.12
63554;BME280;49699;48.072;7.800;2023-05-23T00:59:39;99321.53;;;15.94;80.17
63554;BME280;49699;48.072;7.800;2023-05-23T01:02:05;99322.31;;;15.94;80.27
63554;BME280;49699;48.072;7.800;2023-05-23T01:04:30;99320.69;;;15.93;80.36
63554;BME280;49699;48.072;7.800;2023-05-23T01:06:58;99319.84;;;15.93;80.28
63554;BME280;49699;48.072;7.800;2023-05-23T01:09:25;99326.19;;;15.90;80.42
63554;BME280;49699;48.072;7.800;2023-05-23T01:11:55;99326.19;;;15.90;80.51
63554;BME280;49699;48.072;7.800;2023-05-23T01:14:23;99337.38;;;15.92;80.61
63554;BME280;49699;48.072;7.800;2023-05-23T01:16:53;99332.81;;;15.94;80.56
63554;BME280;49699;48.072;7.800;2023-05-23T01:21:52;99327.44;;;15.96;80.73
63554;BME280;49699;48.072;7.800;2023-05-23T01:29:26;99332.22;;;16.02;80.39
63554;BME280;49699;48.072;7.800;2023-05-23T01:31:53;99339.84;;;16.05;80.14
63554;BME280;49699;48.072;7.800;2023-05-23T01:34:19;99339.59;;;16.08;80.17
63554;BME280;49699;48.072;7.800;2023-05-23T01:36:46;99346.25;;;16.12;80.14
63554;BME280;49699;48.072;7.800;2023-05-23T01:39:13;99342.66;;;16.13;79.95
63554;BME280;49699;48.072;7.800;2023-05-23T01:41:38;99341.00;;;16.12;80.01
63554;BME280;49699;48.072;7.800;2023-05-23T01:44:04;99335.88;;;16.11;80.17
63554;BME280;49699;48.072;7.800;2023-05-23T01:46:30;99330.06;;;16.07;80.33
63554;BME280;49699;48.072;7.800;2023-05-23T01:48:56;99327.69;;;16.04;80.31
63554;BME280;49699;48.072;7.800;2023-05-23T01:51:23;99330.53;;;16.01;80.56
63554;BME280;49699;48.072;7.800;2023-05-23T01:53:49;99330.91;;;15.96;80.66
63554;BME280;49699;48.072;7.800;2023-05-23T01:56:15;99336.69;;;15.90;80.90
63554;BME280;49699;48.072;7.800;2023-05-23T01:58:40;99336.44;;;15.82;81.48
63554;BME280;49699;48.072;7.800;2023-05-23T02:01:05;99338.03;;;15.74;82.08
63554;BME280;49699;48.072;7.800;2023-05-23T02:03:31;99333.75;;;15.61;82.52
63554;BME280;49699;48.072;7.800;2023-05-23T02:05:56;99332.34;;;15.57;82.93
63554;BME280;49699;48.072;7.800;2023-05-23T02:08:21;99332.56;;;15.54;82.99
63554;BME280;49699;48.072;7.800;2023-05-23T02:10:47;99325.88;;;15.50;83.32
63554;BME280;49699;48.072;7.800;2023-05-23T02:13:12;99336.63;;;15.47;83.33
63554;BME280;49699;48.072;7.800;2023-05-23T02:15:37;99331.84;;;15.41;83.57
63554;BME280;49699;48.072;7.800;2023-05-23T02:18:03;99334.03;;;15.36;83.71
63554;BME280;49699;48.072;7.800;2023-05-23T02:20:30;99335.94;;;15.34;83.90
63554;BME280;49699;48.072;7.800;2023-05-23T02:22:55;99337.94;;;15.31;84.11
63554;BME280;49699;48.072;7.800;2023-05-23T02:25:21;99335.56;;;15.27;84.08
63554;BME280;49699;48.072;7.800;2023-05-23T02:27:46;99339.25;;;15.25;84.19
63554;BME280;49699;48.072;7.800;2023-05-23T02:30:11;99339.53;;;15.22;84.21
63554;BME280;49699;48.072;7.800;2023-05-23T02:32:37;99340.72;;;15.18;84.35
63554;BME280;49699;48.072;7.800;2023-05-23T02:35:03;99334.03;;;15.14;84.43
63554;BME280;49699;48.072;7.800;2023-05-23T02:37:28;99340.44;;;15.10;84.60
63554;BME280;49699;48.072;7.800;2023-05-23T02:39:54;99343.41;;;15.05;84.72
63554;BME280;49699;48.072;7.800;2023-05-23T02:42:20;99342.97;;;15.00;84.96
63554;BME280;49699;48.072;7.800;2023-05-23T02:44:45;99343.31;;;14.96;85.26
63554;BME280;49699;48.072;7.800;2023-05-23T02:47:11;99347.00;;;14.93;85.29
63554;BME280;49699;48.072;7.800;2023-05-23T02:49:36;99348.19;;;14.89;85.41
63554;BME280;49699;48.072;7.800;2023-05-23T02:52:01;99345.66;;;14.87;85.57
63554;BME280;49699;48.072;7.800;2023-05-23T02:54:27;99344.97;;;14.85;85.63
63554;BME280;49699;48.072;7.800;2023-05-23T02:56:52;99344.25;;;14.83;85.67
63554;BME280;49699;48.072;7.800;2023-05-23T02:59:20;99344.38;;;14.82;85.61
63554;BME280;49699;48.072;7.800;2023-05-23T03:01:46;99342.72;;;14.81;85.60
63554;BME280;49699;48.072;7.800;2023-05-23T03:04:11;99350.69;;;14.79;85.71
63554;BME280;49699;48.072;7.800;2023-05-23T03:06:38;99347.94;;;14.81;85.63
63554;BME280;49699;48.072;7.800;2023-05-23T03:09:04;99342.72;;;14.81;85.86
63554;BME280;49699;48.072;7.800;2023-05-23T03:11:29;99341.75;;;14.82;85.41
63554;BME280;49699;48.072;7.800;2023-05-23T03:13:54;99347.72;;;14.84;85.64
63554;BME280;49699;48.072;7.800;2023-05-23T03:16:23;99346.78;;;14.85;85.74
63554;BME280;49699;48.072;7.800;2023-05-23T03:18:48;99345.94;;;14.84;85.53
63554;BME280;49699;48.072;7.800;2023-05-23T03:21:15;99347.59;;;14.85;85.69
63554;BME280;49699;48.072;7.800;2023-05-23T03:23:40;99353.53;;;14.87;85.72
63554;BME280;49699;48.072;7.800;2023-05-23T03:26:06;99347.13;;;14.91;85.70
63554;BME280;49699;48.072;7.800;2023-05-23T03:28:31;99355.34;;;14.98;85.44
63554;BME280;49699;48.072;7.800;2023-05-23T03:30:57;99351.44;;;15.04;85.25
63554;BME280;49699;48.072;7.800;2023-05-23T03:33:22;99350.00;;;15.11;85.30
63554;BME280;49699;48.072;7.800;2023-05-23T03:35:47;99350.59;;;15.14;84.94
63554;BME280;49699;48.072;7.800;2023-05-23T03:38:13;99346.91;;;15.17;84.89
63554;BME280;49699;48.072;7.800;2023-05-23T03:40:38;99346.66;;;15.20;84.85
63554;BME280;49699;48.072;7.800;2023-05-23T03:43:04;99351.53;;;15.24;84.60
63554;BME280;49699;48.072;7.800;2023-05-23T03:45:31;99357.38;;;15.28;84.50
63554;BME280;49699;48.072;7.800;2023-05-23T03:47:57;99358.69;;;15.34;84.38
63554;BME280;49699;48.072;7.800;2023-05-23T03:50:23;99360.34;;;15.35;84.47
63554;BME280;49699;48.072;7.800;2023-05-23T03:52:48;99363.69;;;15.37;84.29
63554;BME280;49699;48.072;7.800;2023-05-23T03:55:14;99361.78;;;15.39;84.29
63554;BME280;49699;48.072;7.800;2023-05-23T03:57:39;99353.81;;;15.40;84.26
63554;BME280;49699;48.072;7.800;2023-05-23T04:00:05;99370.13;;;15.44;84.19
63554;BME280;49699;48.072;7.800;2023-05-23T04:02:41;99369.03;;;15.46;84.33
63554;BME280;49699;48.072;7.800;2023-05-23T04:05:08;99371.44;;;15.49;84.00
63554;BME280;49699;48.072;7.800;2023-05-23T04:07:33;99371.91;;;15.54;83.87
63554;BME280;49699;48.072;7.800;2023-05-23T04:09:59;99368.13;;;15.58;83.78
63554;BME280;49699;48.072;7.800;2023-05-23T04:12:24;99368.69;;;15.62;83.56
63554;BME280;49699;48.072;7.800;2023-05-23T04:14:50;99380.50;;;15.68;83.61
63554;BME280;49699;48.072;7.800;2023-05-23T04:17:17;99365.22;;;15.73;83.66
63554;BME280;49699;48.072;7.800;2023-05-23T04:19:42;99370.09;;;15.77;83.29
63554;BME280;49699;48.072;7.800;2023-05-23T04:22:08;99368.91;;;15.81;83.22
63554;BME280;49699;48.072;7.800;2023-05-23T04:24:34;99368.53;;;15.86;83.09
63554;BME280;49699;48.072;7.800;2023-05-23T04:26:59;99373.53;;;15.89;82.94
63554;BME280;49699;48.072;7.800;2023-05-23T04:29:25;99378.44;;;15.93;83.10
63554;BME280;49699;48.072;7.800;2023-05-23T04:31:53;99374.56;;;15.97;82.72
63554;BME280;49699;48.072;7.800;2023-05-23T04:34:19;99385.66;;;16.01;82.55
63554;BME280;49699;48.072;7.800;2023-05-23T04:36:46;99384.34;;;16.07;82.61
63554;BME280;49699;48.072;7.800;2023-05-23T04:39:12;99381.34;;;16.11;82.28
63554;BME280;49699;48.072;7.800;2023-05-23T04:41:46;99380.00;;;16.17;82.17
63554;BME280;49699;48.072;7.800;2023-05-23T04:44:31;99389.06;;;16.24;81.90
63554;BME280;49699;48.072;7.800;2023-05-23T04:47:11;99389.38;;;16.30;81.64
63554;BME280;49699;48.072;7.800;2023-05-23T04:49:47;99397.59;;;16.37;81.34
63554;BME280;49699;48.072;7.800;2023-05-23T04:52:14;99391.00;;;16.43;81.25
63554;BME280;49699;48.072;7.800;2023-05-23T04:54:40;99399.34;;;16.48;81.26
63554;BME280;49699;48.072;7.800;2023-05-23T04:57:09;99397.03;;;16.54;81.25
63554;BME280;49699;48.072;7.800;2023-05-23T04:59:34;99390.59;;;16.58;81.47
63554;BME280;49699;48.072;7.800;2023-05-23T05:02:01;99392.97;;;16.61;81.17
63554;BME280;49699;48.072;7.800;2023-05-23T05:04:27;99397.72;;;16.67;81.35
63554;BME280;49699;48.072;7.800;2023-05-23T05:06:52;99399.97;;;16.72;81.32
63554;BME280;49699;48.072;7.800;2023-05-23T05:09:18;99399.72;;;16.75;81.62
63554;BME280;49699;48.072;7.800;2023-05-23T05:11:44;99397.66;;;16.79;81.53
63554;BME280;49699;48.072;7.800;2023-05-23T05:14:10;99387.75;;;16.82;81.54
63554;BME280;49699;48.072;7.800;2023-05-23T05:16:35;99392.47;;;16.88;81.25
63554;BME280;49699;48.072;7.800;2023-05-23T05:19:01;99397.34;;;16.93;81.15
63554;BME280;49699;48.072;7.800;2023-05-23T05:21:29;99399.47;;;16.99;80.88
63554;BME280;49699;48.072;7.800;2023-05-23T05:23:55;99404.31;;;17.04;80.89
63554;BME280;49699;48.072;7.800;2023-05-23T05:26:21;99414.00;;;17.03;81.06
63554;BME280;49699;48.072;7.800;2023-05-23T05:28:48;99414.28;;;17.00;81.24
63554;BME280;49699;48.072;7.800;2023-05-23T05:31:14;99417.03;;;16.98;81.45
63554;BME280;49699;48.072;7.800;2023-05-23T05:33:40;99420.75;;;16.96;81.79
63554;BME280;49699;48.072;7.800;2023-05-23T05:36:09;99411.31;;;16.93;81.86
63554;BME280;49699;48.072;7.800;2023-05-23T05:38:34;99416.69;;;16.92;81.93
63554;BME280;49699;48.072;7.800;2023-05-23T05:41:00;99421.84;;;16.93;81.97
63554;BME280;49699;48.072;7.800;2023-05-23T05:43:30;99418.81;;;16.98;81.81
63554;BME280;49699;48.072;7.800;2023-05-23T05:45:56;99426.47;;;17.01;81.71
63554;BME280;49699;48.072;7.800;2023-05-23T05:48:21;99417.75;;;17.00;81.55
63554;BME280;49699;48.072;7.800;2023-05-23T05:50:49;99424.78;;;17.00;81.71
63554;BME280;49699;48.072;7.800;2023-05-23T05:53:14;99429.47;;;16.96;81.89
63554;BME280;49699;48.072;7.800;2023-05-23T05:55:40;99429.47;;;16.96;81.81
63554;BME280;49699;48.072;7.800;2023-05-23T05:58:05;99435.44;;;16.98;81.98
63554;BME280;49699;48.072;7.800;2023-05-23T06:00:44;99434.34;;;17.01;81.96
63554;BME280;49699;48.072;7.800;2023-05-23T06:03:10;99436.13;;;17.00;81.88
63554;BME280;49699;48.072;7.800;2023-05-23T06:05:42;99428.81;;;17.04;81.85
63554;BME280;49699;48.072;7.800;2023-05-23T06:08:07;99428.81;;;17.04;81.92
63554;BME280;49699;48.072;7.800;2023-05-23T06:10:32;99439.31;;;17.04;81.95
63554;BME280;49699;48.072;7.800;2023-05-23T06:12:58;99440.03;;;17.06;82.04
63554;BME280;49699;48.072;7.800;2023-05-23T06:15:24;99442.41;;;17.09;81.82
63554;BME280;49699;48.072;7.800;2023-05-23T06:17:50;99441.06;;;17.15;81.62
63554;BME280;49699;48.072;7.800;2023-05-23T06:20:15;99440.09;;;17.16;81.55
63554;BME280;49699;48.072;7.800;2023-05-23T06:22:43;99440.69;;;17.19;81.41
63554;BME280;49699;48.072;7.800;2023-05-23T06:25:08;99436.09;;;17.21;81.36
63554;BME280;49699;48.072;7.800;2023-05-23T06:27:33;99445.41;;;17.25;81.08
63554;BME280;49699;48.072;7.800;2023-05-23T06:30:01;99440.34;;;17.33;80.81
63554;BME280;49699;48.072;7.800;2023-05-23T06:32:26;99438.81;;;17.41;80.61
63554;BME280;49699;48.072;7.800;2023-05-23T06:34:52;99436.66;;;17.46;80.16
63554;BME280;49699;48.072;7.800;2023-05-23T06:37:17;99444.16;;;17.50;80.08
63554;BME280;49699;48.072;7.800;2023-05-23T06:39:42;99439.47;;;17.54;79.97
63554;BME280;49699;48.072;7.800;2023-05-23T06:42:08;99432.56;;;17.62;79.63
63554;BME280;49699;48.072;7.800;2023-05-23T06:44:49;99440.53;;;17.72;79.08
63554;BME280;49699;48.072;7.800;2023-05-23T06:47:16;99438.75;;;17.82;78.65
63554;BME280;49699;48.072;7.800;2023-05-23T06:49:41;99441.69;;;17.89;78.29
63554;BME280;49699;48.072;7.800;2023-05-23T06:52:07;99440.44;;;17.93;78.03
63554;BME280;49699;48.072;7.800;2023-05-23T06:54:33;99442.53;;;17.99;77.38
63554;BME280;49699;48.072;7.800;2023-05-23T06:56:58;99448.25;;;18.04;77.18
63554;BME280;49699;48.072;7.800;2023-05-23T06:59:23;99455.19;;;18.15;76.85
63554;BME280;49699;48.072;7.800;2023-05-23T07:01:49;99446.03;;;18.28;76.33
63554;BME280;49699;48.072;7.800;2023-05-23T07:04:14;99445.94;;;18.39;75.71
63554;BME280;49699;48.072;7.800;2023-05-23T07:06:39;99447.72;;;18.49;75.23
63554;BME280;49699;48.072;7.800;2023-05-23T07:09:06;99454.81;;;18.58;74.87
63554;BME280;49699;48.072;7.800;2023-05-23T07:11:31;99454.44;;;18.62;74.59
63554;BME280;49699;48.072;7.800;2023-05-23T07:13:58;99457.63;;;18.76;74.30
63554;BME280;49699;48.072;7.800;2023-05-23T07:16:34;99452.75;;;18.90;73.70
63554;BME280;49699;48.072;7.800;2023-05-23T07:19:04;99452.81;;;19.18;72.73
63554;BME280;49699;48.072;7.800;2023-05-23T07:21:30;99449.00;;;19.49;71.60
63554;BME280;49699;48.072;7.800;2023-05-23T07:23:56;99448.22;;;19.76;70.76
63554;BME280;49699;48.072;7.800;2023-05-23T07:26:21;99447.09;;;19.79;70.19
63554;BME280;49699;48.072;7.800;2023-05-23T07:28:53;99447.50;;;19.84;70.32
63554;BME280;49699;48.072;7.800;2023-05-23T07:31:18;99453.13;;;19.98;69.62
63554;BME280;49699;48.072;7.800;2023-05-23T07:33:44;99450.72;;;20.05;69.33
63554;BME280;49699;48.072;7.800;2023-05-23T07:36:13;99454.41;;;20.12;69.14
63554;BME280;49699;48.072;7.800;2023-05-23T07:38:39;99453.16;;;20.16;69.02
63554;BME280;49699;48.072;7.800;2023-05-23T07:41:04;99451.47;;;20.15;68.70
63554;BME280;49699;48.072;7.800;2023-05-23T07:43:29;99460.69;;;20.11;68.65
63554;BME280;49699;48.072;7.800;2023-05-23T07:45:55;99458.56;;;20.15;68.75
63554;BME280;49699;48.072;7.800;2023-05-23T07:48:20;99459.88;;;20.28;68.34
63554;BME280;49699;48.072;7.800;2023-05-23T07:50:46;99459.13;;;20.36;67.95
63554;BME280;49699;48.072;7.800;2023-05-23T07:53:11;99465.28;;;20.36;67.96
63554;BME280;49699;48.072;7.800;2023-05-23T07:55:37;99468.88;;;20.35;68.01
63554;BME280;49699;48.072;7.800;2023-05-23T07:58:03;99470.97;;;20.41;68.01
63554;BME280;49699;48.072;7.800;2023-05-23T08:00:28;99469.44;;;20.39;68.06
63554;BME280;49699;48.072;7.800;2023-05-23T08:03:00;99473.47;;;20.33;68.16
63554;BME280;49699;48.072;7.800;2023-05-23T08:05:32;99472.88;;;20.22;68.23
63554;BME280;49699;48.072;7.800;2023-05-23T08:07:58;99472.50;;;20.07;68.77
63554;BME280;49699;48.072;7.800;2023-05-23T08:10:23;99478.00;;;19.96;69.08
63554;BME280;49699;48.072;7.800;2023-05-23T08:12:51;99481.00;;;19.83;69.63
63554;BME280;49699;48.072;7.800;2023-05-23T08:15:17;99487.69;;;19.77;69.87
63554;BME280;49699;48.072;7.800;2023-05-23T08:17:48;99485.25;;;19.66;69.82
63554;BME280;49699;48.072;7.800;2023-05-23T08:20:15;99479.84;;;19.49;70.29
63554;BME280;49699;48.072;7.800;2023-05-23T08:22:40;99488.22;;;19.34;70.86
63554;BME280;49699;48.072;7.800;2023-05-23T08:25:06;99483.94;;;19.33;70.88
63554;BME280;49699;48.072;7.800;2023-05-23T08:27:34;99487.09;;;19.37;70.72
63554;BME280;49699;48.072;7.800;2023-05-23T08:30:05;99481.22;;;19.53;70.15
63554;BME280;49699;48.072;7.800;2023-05-23T08:32:34;99479.81;;;19.68;69.67
63554;BME280;49699;48.072;7.800;2023-05-23T08:34:59;99489.63;;;19.75;69.13
63554;BME280;49699;48.072;7.800;2023-05-23T08:37:24;99490.88;;;19.81;69.08
63554;BME280;49699;48.072;7.800;2023-05-23T08:39:50;99495.59;;;19.87;68.62
63554;BME280;49699;48.072;7.800;2023-05-23T08:42:35;99491.13;;;19.88;68.45
63554;BME280;49699;48.072;7.800;2023-05-23T08:45:01;99496.78;;;19.93;68.26
63554;BME280;49699;48.072;7.800;2023-05-23T08:47:27;99497.72;;;20.01;68.00
63554;BME280;49699;48.072;7.800;2023-05-23T08:49:57;99504.41;;;20.05;67.67
63554;BME280;49699;48.072;7.800;2023-05-23T08:52:26;99502.03;;;20.02;67.72
63554;BME280;49699;48.072;7.800;2023-05-23T08:54:53;99511.81;;;19.92;67.81
63554;BME280;49699;48.072;7.800;2023-05-23T08:57:19;99510.06;;;19.83;68.14
63554;BME280;49699;48.072;7.800;2023-05-23T08:59:50;99512.00;;;19.81;68.21
63554;BME280;49699;48.072;7.800;2023-05-23T09:02:16;99507.13;;;19.86;68.11
63554;BME280;49699;48.072;7.800;2023-05-23T09:04:43;99506.38;;;19.94;67.75
63554;BME280;49699;48.072;7.800;2023-05-23T09:07:14;99511.72;;;20.11;67.06
63554;BME280;49699;48.072;7.800;2023-05-23T09:09:41;99504.44;;;20.23;66.50
63554;BME280;49699;48.072;7.800;2023-05-23T09:12:09;99500.59;;;20.35;66.28
63554;BME280;49699;48.072;7.800;2023-05-23T09:14:37;99505.41;;;20.50;65.73
63554;BME280;49699;48.072;7.800;2023-05-23T09:17:06;99502.84;;;20.58;65.38
63554;BME280;49699;48.072;7.800;2023-05-23T09:19:31;99507.31;;;20.75;65.21
63554;BME280;49699;48.072;7.800;2023-05-23T09:22:05;99513.06;;;21.14;63.68
63554;BME280;49699;48.072;7.800;2023-05-23T09:24:37;99509.66;;;21.39;62.58
63554;BME280;49699;48.072;7.800;2023-05-23T09:27:06;99513.00;;;21.41;62.21
63554;BME280;49699;48.072;7.800;2023-05-23T09:29:31;99506.34;;;21.37;62.59
63554;BME280;49699;48.072;7.800;2023-05-23T09:32:10;99514.81;;;21.41;62.63
63554;BME280;49699;48.072;7.800;2023-05-23T09:34:40;99505.81;;;21.60;62.08
63554;BME280;49699;48.072;7.800;2023-05-23T09:37:06;99500.31;;;21.79;60.87
63554;BME280;49699;48.072;7.800;2023-05-23T09:39:35;99508.63;;;22.26;59.92
63554;BME280;49699;48.072;7.800;2023-05-23T09:42:01;99495.63;;;22.65;58.39
63554;BME280;49699;48.072;7.800;2023-05-23T09:44:26;99495.53;;;22.91;57.56
63554;BME280;49699;48.072;7.800;2023-05-23T09:46:51;99489.69;;;22.96;57.18
63554;BME280;49699;48.072;7.800;2023-05-23T09:49:18;99494.50;;;23.00;57.04
63554;BME280;49699;48.072;7.800;2023-05-23T09:51:55;99489.03;;;23.26;56.35
63554;BME280;49699;48.072;7.800;2023-05-23T09:54:21;99499.78;;;23.41;55.57
63554;BME280;49699;48.072;7.800;2023-05-23T09:56:46;99495.69;;;23.06;56.23
63554;BME280;49699;48.072;7.800;2023-05-23T09:59:12;99498.66;;;22.87;57.08
63554;BME280;49699;48.072;7.800;2023-05-23T10:01:40;99499.84;;;23.08;56.67
63554;BME280;49699;48.072;7.800;2023-05-23T10:04:06;99496.97;;;23.42;55.20
63554;BME280;49699;48.072;7.800;2023-05-23T10:06:34;99489.50;;;23.46;55.01
63554;BME280;49699;48.072;7.800;2023-05-23T10:09:02;99495.81;;;23.53;55.04
63554;BME280;49699;48.072;7.800;2023-05-23T10:14:06;99489.72;;;23.92;53.79
63554;BME280;49699;48.072;7.800;2023-05-23T10:19:05;99490.28;;;24.10;53.23
63554;BME280;49699;48.072;7.800;2023-05-23T10:21:34;99488.28;;;24.12;53.21
63554;BME280;49699;48.072;7.800;2023-05-23T10:24:00;99476.69;;;24.05;52.76
63554;BME280;49699;48.072;7.800;2023-05-23T10:26:27;99484.91;;;23.87;53.22
63554;BME280;49699;48.072;7.800;2023-05-23T10:28:53;99481.06;;;23.89;53.46
63554;BME280;49699;48.072;7.800;2023-05-23T10:31:19;99489.72;;;23.92;53.26
63554;BME280;49699;48.072;7.800;2023-05-23T10:33:47;99473.31;;;23.80;53.19
63554;BME280;49699;48.072;7.800;2023-05-23T10:36:18;99479.81;;;23.77;53.07
63554;BME280;49699;48.072;7.800;2023-05-23T10:41:21;99484.19;;;23.62;52.69
63554;BME280;49699;48.072;7.800;2023-05-23T10:44:01;99485.47;;;23.66;52.26
63554;BME280;49699;48.072;7.800;2023-05-23T10:49:13;99488.38;;;23.87;51.95
63554;BME280;49699;48.072;7.800;2023-05-23T10:51:38;99481.50;;;24.09;51.39
63554;BME280;49699;48.072;7.800;2023-05-23T10:54:09;99483.88;;;24.35;50.82
63554;BME280;49699;48.072;7.800;2023-05-23T10:56:34;99480.13;;;24.52;50.51
63554;BME280;49699;48.072;7.800;2023-05-23T10:59:01;99478.94;;;24.78;49.49
63554;BME280;49699;48.072;7.800;2023-05-23T11:01:29;99470.75;;;24.79;49.34
63554;BME280;49699;48.072;7.800;2023-05-23T11:03:54;99490.88;;;24.82;49.34
63554;BME280;49699;48.072;7.800;2023-05-23T11:06:32;99484.38;;;24.84;49.41
63554;BME280;49699;48.072;7.800;2023-05-23T11:11:50;99484.19;;;24.86;49.69
63554;BME280;49699;48.072;7.800;2023-05-23T11:14:13;99483.56;;;25.07;49.43
63554;BME280;49699;48.072;7.800;2023-05-23T11:16:42;99487.59;;;25.03;49.29
63554;BME280;49699;48.072;7.800;2023-05-23T11:22:02;99481.41;;;24.56;50.14
63554;BME280;49699;48.072;7.800;2023-05-23T11:27:12;99476.31;;;24.47;50.33
63554;BME280;49699;48.072;7.800;2023-05-23T11:29:37;99476.00;;;24.42;50.32
63554;BME280;49699;48.072;7.800;2023-05-23T11:32:09;99479.16;;;24.45;50.23
63554;BME280;49699;48.072;7.800;2023-05-23T11:34:36;99470.84;;;24.48;49.80
63554;BME280;49699;48.072;7.800;2023-05-23T11:37:01;99477.91;;;24.33;49.48
63554;BME280;49699;48.072;7.800;2023-05-23T11:39:27;99484.16;;;24.09;50.13
63554;BME280;49699;48.072;7.800;2023-05-23T11:42:02;99475.75;;;23.89;49.63
63554;BME280;49699;48.072;7.800;2023-05-23T11:44:27;99485.00;;;23.63;50.51
63554;BME280;49699;48.072;7.800;2023-05-23T11:46:59;99483.69;;;23.59;50.69
63554;BME280;49699;48.072;7.800;2023-05-23T11:49:26;99485.63;;;23.73;50.82
63554;BME280;49699;48.072;7.800;2023-05-23T11:51:52;99477.16;;;23.69;50.75
63554;BME280;49699;48.072;7.800;2023-05-23T11:54:17;99485.16;;;23.61;50.89
63554;BME280;49699;48.072;7.800;2023-05-23T11:56:46;99486.13;;;23.68;51.02
63554;BME280;49699;48.072;7.800;2023-05-23T11:59:11;99479.41;;;23.88;50.59
63554;BME280;49699;48.072;7.800;2023-05-23T12:01:36;99475.69;;;24.06;49.73
63554;BME280;49699;48.072;7.800;2023-05-23T12:04:07;99481.06;;;23.98;50.00
63554;BME280;49699;48.072;7.800;2023-05-23T12:06:33;99471.28;;;23.90;50.21
63554;BME280;49699;48.072;7.800;2023-05-23T12:08:59;99483.41;;;23.93;50.21
63554;BME280;49699;48.072;7.800;2023-05-23T12:11:24;99478.69;;;24.03;50.10
63554;BME280;49699;48.072;7.800;2023-05-23T12:13:51;99472.34;;;24.12;50.28
63554;BME280;49699;48.072;7.800;2023-05-23T12:16:16;99478.09;;;24.32;49.82
63554;BME280;49699;48.072;7.800;2023-05-23T12:18:41;99482.88;;;24.59;49.07
63554;BME280;49699;48.072;7.800;2023-05-23T12:21:07;99473.13;;;24.74;48.25
63554;BME280;49699;48.072;7.800;2023-05-23T12:23:32;99476.63;;;24.75;48.33
63554;BME280;49699;48.072;7.800;2023-05-23T12:25:58;99479.41;;;24.81;47.92
63554;BME280;49699;48.072;7.800;2023-05-23T12:28:36;99475.09;;;24.80;47.97
63554;BME280;49699;48.072;7.800;2023-05-23T12:31:08;99476.56;;;24.83;47.91
63554;BME280;49699;48.072;7.800;2023-05-23T12:33:36;99478.41;;;24.82;47.09
63554;BME280;49699;48.072;7.800;2023-05-23T12:36:02;99475.03;;;24.66;47.66
63554;BME280;49699;48.072;7.800;2023-05-23T12:38:27;99471.53;;;24.65;47.60
63554;BME280;49699;48.072;7.800;2023-05-23T12:43:37;99472.53;;;24.87;47.12
63554;BME280;49699;48.072;7.800;2023-05-23T12:46:03;99474.28;;;25.03;46.69
63554;BME280;49699;48.072;7.800;2023-05-23T12:48:28;99473.09;;;25.05;46.34
63554;BME280;49699;48.072;7.800;2023-05-23T12:50:54;99468.28;;;25.01;46.22
63554;BME280;49699;48.072;7.800;2023-05-23T12:53:19;99473.81;;;24.91;46.26
63554;BME280;49699;48.072;7.800;2023-05-23T12:55:45;99469.06;;;24.86;46.52
63554;BME280;49699;48.072;7.800;2023-05-23T12:58:10;99461.00;;;24.95;46.30
63554;BME280;49699;48.072;7.800;2023-05-23T13:00:35;99463.78;;;25.01;46.01
63554;BME280;49699;48.072;7.800;2023-05-23T13:03:01;99461.59;;;25.05;46.03
63554;BME280;49699;48.072;7.800;2023-05-23T13:05:27;99467.03;;;25.11;46.45
63554;BME280;49699;48.072;7.800;2023-05-23T13:07:52;99464.59;;;25.24;46.21
63554;BME280;49699;48.072;7.800;2023-05-23T13:10:17;99462.19;;;25.30;45.60
63554;BME280;49699;48.072;7.800;2023-05-23T13:12:43;99457.00;;;25.13;45.56
63554;BME280;49699;48.072;7.800;2023-05-23T13:15:08;99455.00;;;24.92;45.79
63554;BME280;49699;48.072;7.800;2023-05-23T13:17:34;99465.56;;;24.86;46.11
63554;BME280;49699;48.072;7.800;2023-05-23T13:19:59;99460.78;;;24.81;45.89
63554;BME280;49699;48.072;7.800;2023-05-23T13:22:25;99454.88;;;24.71;46.41
63554;BME280;49699;48.072;7.800;2023-05-23T13:24:50;99463.97;;;24.77;46.39
63554;BME280;49699;48.072;7.800;2023-05-23T13:27:16;99453.75;;;24.66;46.06